Time;durP1;ratioP1;P1;durP2;ratioP2;P2;SDS_P1;SDS_P2;PMS_P1;PMS_P2;Temp;Humidity;BMP_temperature;BMP_pressure;BME280_temperature;BME280_humidity;BME280_pressure;Samples;Min_cycle;Max_cycle;Signal;HPM_P1;HPM_P2
2023/06/04 04:31:11;;;;;;;5.65;2.25;;;15.50;62.00;;;;;;5568176;23;20061;-82
2023/06/04 04:33:39;;;;;;;5.13;2.42;;;15.60;61.70;;;;;;4968580;28;20370;-82
2023/06/04 04:36:08;;;;;;;4.95;2.38;;;15.70;61.50;;;;;;4971247;28;20516;-82
2023/06/04 04:38:34;;;;;;;6.72;2.47;;;15.60;61.60;;;;;;4937736;29;20023;-82
2023/06/04 04:41:00;;;;;;;5.28;2.42;;;15.60;61.30;;;;;;4953701;29;20503;-83
2023/06/04 04:43:34;;;;;;;5.30;2.30;;;15.70;61.40;;;;;;4972326;28;20050;-83
2023/06/04 04:46:00;;;;;;;5.13;2.50;;;15.70;61.30;;;;;;4972923;28;20153;-82
2023/06/04 04:48:26;;;;;;;5.57;2.67;;;15.70;61.10;;;;;;4974091;28;20137;-82
2023/06/04 04:50:52;;;;;;;7.45;2.45;;;15.70;61.00;;;;;;4972496;28;20034;-82
2023/06/04 04:53:18;;;;;;;4.85;2.40;;;15.70;61.30;;;;;;4974154;28;20027;-82
2023/06/04 04:55:44;;;;;;;5.70;2.42;;;15.60;61.30;;;;;;4973940;28;20598;-82
2023/06/04 04:58:09;;;;;;;7.10;2.28;;;15.70;61.50;;;;;;4972901;28;20030;-83
2023/06/04 05:00:35;;;;;;;5.80;2.33;;;15.60;61.50;;;;;;4955183;28;20034;-82
2023/06/04 05:03:01;;;;;;;5.65;2.78;;;15.60;61.50;;;;;;4972761;28;20026;-83
2023/06/04 05:05:26;;;;;;;3.97;2.20;;;15.60;61.40;;;;;;4976603;28;20089;-82
2023/06/04 05:07:52;;;;;;;6.28;2.38;;;15.60;61.50;;;;;;4948714;29;20082;-82
2023/06/04 05:10:18;;;;;;;8.00;2.50;;;15.60;61.40;;;;;;4942357;28;20037;-82
2023/06/04 05:12:58;;;;;;;6.65;2.22;;;15.60;61.40;;;;;;4976190;28;20492;-82
2023/06/04 05:15:26;;;;;;;5.35;1.95;;;15.70;61.30;;;;;;4977494;28;20030;-82
2023/06/04 05:17:52;;;;;;;4.38;1.90;;;15.70;61.30;;;;;;4959301;28;20034;-82
2023/06/04 05:20:20;;;;;;;4.43;2.03;;;15.80;61.10;;;;;;4959596;28;20508;-82
2023/06/04 05:22:46;;;;;;;9.00;2.15;;;15.80;61.30;;;;;;4973237;28;20030;-82
2023/06/04 05:25:12;;;;;;;8.23;2.17;;;15.70;61.30;;;;;;4940969;29;20028;-82
2023/06/04 05:27:39;;;;;;;6.90;2.08;;;15.70;61.30;;;;;;4968335;28;20034;-83
2023/06/04 05:30:06;;;;;;;3.92;1.80;;;15.80;61.40;;;;;;4979261;28;20098;-82
2023/06/04 05:32:32;;;;;;;3.47;2.08;;;15.80;61.30;;;;;;4961607;28;20047;-82
2023/06/04 05:34:59;;;;;;;5.00;1.95;;;15.80;61.30;;;;;;4965596;28;20110;-82
2023/06/04 05:37:28;;;;;;;7.15;2.60;;;15.80;61.20;;;;;;4953117;28;20102;-82
2023/06/04 05:39:55;;;;;;;4.63;2.08;;;15.90;61.60;;;;;;4971389;28;20039;-81
2023/06/04 05:42:21;;;;;;;5.35;2.13;;;15.90;61.60;;;;;;4959630;28;20066;-82
2023/06/04 05:44:46;;;;;;;3.88;1.90;;;15.90;62.10;;;;;;4980148;28;20034;-82
2023/06/04 05:47:12;;;;;;;6.88;2.13;;;15.90;61.70;;;;;;4971111;28;20066;-82
2023/06/04 05:49:38;;;;;;;4.28;1.75;;;15.90;61.20;;;;;;4957469;29;20039;-82
2023/06/04 05:52:05;;;;;;;4.65;2.42;;;16.00;61.00;;;;;;4956705;28;20038;-82
2023/06/04 05:54:30;;;;;;;3.70;2.10;;;16.00;61.00;;;;;;4960061;28;20487;-82
2023/06/04 05:56:56;;;;;;;5.38;2.00;;;16.00;61.10;;;;;;4976864;28;20042;-82
2023/06/04 05:59:22;;;;;;;7.47;1.90;;;16.00;60.80;;;;;;4956639;28;20496;-82
2023/06/04 06:01:49;;;;;;;5.15;2.10;;;16.10;60.70;;;;;;4957597;29;20051;-81
2023/06/04 06:04:15;;;;;;;5.43;2.20;;;16.20;60.70;;;;;;4972702;28;20478;-82
2023/06/04 06:06:43;;;;;;;5.43;2.05;;;16.20;60.80;;;;;;4975728;28;20019;-83
2023/06/04 06:09:09;;;;;;;5.00;2.05;;;16.20;61.00;;;;;;4976599;28;20515;-77
2023/06/04 06:11:35;;;;;;;7.30;2.35;;;16.20;60.70;;;;;;4976584;28;20023;-76
2023/06/04 06:14:01;;;;;;;3.75;1.95;;;16.30;61.00;;;;;;4976125;28;20027;-77
2023/06/04 06:16:27;;;;;;;6.60;2.40;;;16.30;60.60;;;;;;4955433;29;20592;-79
2023/06/04 06:18:53;;;;;;;4.32;2.00;;;16.40;60.50;;;;;;4957362;29;20085;-80
2023/06/04 06:21:19;;;;;;;4.90;2.05;;;16.40;60.90;;;;;;4947835;28;20478;-77
2023/06/04 06:23:45;;;;;;;5.70;1.92;;;16.50;60.60;;;;;;4970276;28;20035;-80
2023/06/04 06:26:11;;;;;;;5.50;2.13;;;16.50;60.50;;;;;;4956277;29;20031;-79
2023/06/04 06:28:37;;;;;;;3.95;2.17;;;16.60;60.40;;;;;;4956925;28;20039;-81
2023/06/04 06:31:03;;;;;;;5.57;1.90;;;16.60;60.10;;;;;;4949673;29;20164;-79
2023/06/04 06:33:29;;;;;;;5.40;2.20;;;16.70;60.00;;;;;;4964817;28;20484;-82
2023/06/04 06:35:54;;;;;;;4.03;2.05;;;16.80;60.00;;;;;;4978383;28;20077;-81
2023/06/04 06:38:20;;;;;;;4.38;1.90;;;16.80;60.00;;;;;;4976459;28;20371;-80
2023/06/04 06:40:46;;;;;;;5.40;2.00;;;16.90;59.50;;;;;;4961320;28;20035;-80
2023/06/04 06:43:11;;;;;;;4.40;1.90;;;16.90;59.50;;;;;;4963471;28;20034;-80
2023/06/04 06:45:37;;;;;;;4.10;2.15;;;17.00;59.30;;;;;;4976291;28;20030;-78
2023/06/04 06:48:03;;;;;;;5.68;1.90;;;17.00;59.10;;;;;;4975738;28;20035;-83
2023/06/04 06:50:29;;;;;;;4.25;1.95;;;17.10;58.90;;;;;;4976175;28;20031;-83
2023/06/04 06:52:55;;;;;;;4.53;2.05;;;17.20;59.10;;;;;;4978446;28;20034;-87
2023/06/04 06:55:21;;;;;;;4.05;1.90;;;17.20;58.50;;;;;;4950105;28;20041;-80
2023/06/04 06:57:46;;;;;;;4.47;1.88;;;17.30;58.70;;;;;;4974321;28;20119;-85
2023/06/04 07:00:13;;;;;;;5.35;1.95;;;17.30;58.40;;;;;;4958103;28;20051;-81
2023/06/04 07:02:38;;;;;;;6.25;1.88;;;17.50;57.80;;;;;;4972181;28;20115;-80
2023/06/04 07:05:04;;;;;;;4.47;1.98;;;17.60;57.60;;;;;;4961570;28;20055;-80
2023/06/04 07:07:31;;;;;;;5.22;1.88;;;17.70;57.10;;;;;;4977978;28;20037;-80
2023/06/04 07:09:56;;;;;;;5.15;1.70;;;17.70;57.20;;;;;;4961102;28;20042;-81
2023/06/04 07:12:22;;;;;;;8.18;2.35;;;17.80;57.00;;;;;;4979581;28;20034;-80
2023/06/04 07:14:47;;;;;;;4.57;1.80;;;17.90;56.50;;;;;;4979205;28;20031;-80
2023/06/04 07:17:13;;;;;;;5.68;2.17;;;17.90;56.20;;;;;;4961499;28;20066;-80
2023/06/04 07:19:39;;;;;;;3.80;1.90;;;18.00;56.20;;;;;;4979325;28;20031;-81
2023/06/04 07:22:05;;;;;;;5.57;2.40;;;18.10;56.00;;;;;;4979350;28;20110;-83
2023/06/04 07:24:30;;;;;;;4.28;2.53;;;18.30;55.70;;;;;;4978391;28;20089;-80
2023/06/04 07:26:56;;;;;;;4.78;2.20;;;18.40;55.60;;;;;;4979241;28;20062;-80
2023/06/04 07:29:22;;;;;;;4.85;1.95;;;18.60;55.10;;;;;;4968152;28;20032;-83
2023/06/04 07:31:48;;;;;;;5.15;2.33;;;18.80;55.00;;;;;;4959995;29;20047;-80
2023/06/04 07:34:13;;;;;;;7.78;2.13;;;19.60;53.70;;;;;;4974474;28;20030;-80
2023/06/04 07:36:39;;;;;;;4.03;2.00;;;20.30;51.30;;;;;;4972375;28;20045;-80
2023/06/04 07:39:04;;;;;;;5.07;2.47;;;21.30;49.90;;;;;;4960509;28;20453;-81
2023/06/04 07:41:30;;;;;;;4.13;1.90;;;22.40;47.10;;;;;;4961768;28;20232;-81
2023/06/04 07:43:56;;;;;;;5.82;2.38;;;23.80;44.10;;;;;;4992158;28;20030;-81
2023/06/04 07:46:21;;;;;;;5.60;2.15;;;25.60;39.50;;;;;;4972405;28;20113;-82
2023/06/04 07:48:47;;;;;;;5.25;2.22;;;28.20;34.70;;;;;;4996850;28;20031;-77
2023/06/04 07:51:13;;;;;;;4.53;2.47;;;30.60;32.20;;;;;;4981798;28;20027;-79
2023/06/04 07:53:39;;;;;;;6.05;2.40;;;32.30;29.50;;;;;;4961908;28;20066;-80
2023/06/04 07:56:06;;;;;;;6.00;2.63;;;33.70;27.60;;;;;;4955695;28;20054;-80
2023/06/04 07:58:32;;;;;;;5.63;2.60;;;34.80;25.90;;;;;;4961923;28;20038;-80
2023/06/04 08:00:57;;;;;;;4.18;2.50;;;35.50;25.30;;;;;;4982319;28;20023;-81
2023/06/04 08:03:24;;;;;;;6.47;2.65;;;36.10;24.40;;;;;;4983990;28;20023;-81
2023/06/04 08:05:50;;;;;;;4.00;2.53;;;36.50;24.10;;;;;;4963275;28;20031;-81
2023/06/04 08:08:15;;;;;;;4.28;2.30;;;37.00;23.50;;;;;;4979580;28;20027;-81
2023/06/04 08:10:41;;;;;;;4.18;2.40;;;37.30;23.20;;;;;;4978783;28;20102;-80
2023/06/04 08:13:08;;;;;;;7.72;2.80;;;37.30;23.10;;;;;;4954225;28;20118;-81
2023/06/04 08:15:34;;;;;;;4.25;2.90;;;37.80;22.50;;;;;;4957980;29;20114;-81
2023/06/04 08:18:00;;;;;;;6.10;2.70;;;38.10;21.90;;;;;;4969397;28;20061;-81
2023/06/04 08:20:25;;;;;;;4.57;3.00;;;38.10;21.90;;;;;;4972487;28;20033;-81
2023/06/04 08:22:51;;;;;;;6.07;2.88;;;38.10;22.40;;;;;;4975392;28;20517;-81
2023/06/04 08:25:17;;;;;;;5.63;2.97;;;38.20;22.60;;;;;;4960165;28;20050;-84
2023/06/04 08:27:43;;;;;;;8.00;2.75;;;38.30;22.40;;;;;;4959535;28;20392;-81
2023/06/04 08:30:09;;;;;;;10.27;3.50;;;38.20;22.60;;;;;;4977733;28;20058;-81
2023/06/04 08:32:35;;;;;;;5.78;2.78;;;38.00;22.80;;;;;;4977773;28;20031;-81
2023/06/04 08:35:00;;;;;;;4.75;3.08;;;38.20;23.10;;;;;;4972057;28;20101;-81
2023/06/04 08:37:26;;;;;;;4.65;2.70;;;38.00;22.50;;;;;;4961912;28;20037;-81
2023/06/04 08:39:52;;;;;;;4.75;2.70;;;37.80;22.50;;;;;;4977701;28;20394;-81
2023/06/04 08:42:44;;;;;;;6.05;2.90;;;37.70;23.10;;;;;;4977460;28;20026;-80
2023/06/04 08:45:15;;;;;;;7.18;2.80;;;37.60;23.20;;;;;;4977875;28;20129;-80
2023/06/04 08:47:49;;;;;;;4.25;2.58;;;37.80;22.90;;;;;;4978233;28;20026;-81
2023/06/04 08:50:17;;;;;;;4.32;3.03;;;37.80;22.90;;;;;;4978223;28;20034;-81
2023/06/04 08:52:43;;;;;;;4.07;3.10;;;37.70;23.10;;;;;;4976605;28;20022;-81
2023/06/04 08:55:14;;;;;;;5.45;3.00;;;37.80;23.20;;;;;;4978375;28;20055;-81
2023/06/04 08:57:40;;;;;;;4.07;2.60;;;38.00;23.50;;;;;;4960372;28;20019;-81
2023/06/04 09:00:08;;;;;;;4.22;2.90;;;38.30;22.90;;;;;;4977675;28;20117;-85
2023/06/04 09:02:37;;;;;;;4.55;2.92;;;38.50;23.10;;;;;;4946399;28;20031;-84
2023/06/04 09:05:06;;;;;;;4.68;3.10;;;38.60;22.20;;;;;;4977349;28;20037;-79
2023/06/04 09:07:36;;;;;;;7.15;3.17;;;38.40;22.70;;;;;;4973214;28;20030;-83
2023/06/04 09:10:04;;;;;;;4.07;2.63;;;38.60;23.00;;;;;;4975617;28;20110;-84
2023/06/04 09:12:31;;;;;;;6.47;3.05;;;38.80;23.10;;;;;;4959689;28;20022;-83
2023/06/04 09:14:57;;;;;;;5.78;3.15;;;39.20;22.20;;;;;;4976527;28;20038;-82
2023/06/04 09:17:24;;;;;;;5.10;2.67;;;39.30;21.80;;;;;;4974830;28;20018;-83
2023/06/04 09:19:53;;;;;;;6.10;3.50;;;39.30;22.40;;;;;;4975063;28;20038;-83
2023/06/04 09:22:18;;;;;;;5.28;2.90;;;39.50;22.60;;;;;;4975694;28;20023;-81
2023/06/04 09:24:47;;;;;;;4.05;2.80;;;39.60;22.00;;;;;;4976606;28;20479;-76
2023/06/04 09:27:14;;;;;;;5.93;3.30;;;39.80;22.00;;;;;;4976890;28;20448;-83
2023/06/04 09:29:49;;;;;;;4.55;3.00;;;40.00;21.60;;;;;;4976579;28;20034;-82
2023/06/04 09:32:20;;;;;;;4.03;3.00;;;40.00;21.50;;;;;;4958154;28;20054;-82
2023/06/04 09:34:46;;;;;;;5.30;3.40;;;40.20;21.00;;;;;;4976965;28;20042;-82
2023/06/04 09:37:17;;;;;;;4.60;3.25;;;40.30;20.60;;;;;;4964997;28;20027;-81
2023/06/04 09:39:43;;;;;;;4.55;3.00;;;40.20;20.80;;;;;;4996560;28;20033;-81
2023/06/04 09:42:09;;;;;;;4.97;3.15;;;39.70;20.70;;;;;;4979151;28;20030;-82
2023/06/04 09:44:45;;;;;;;4.57;3.22;;;39.70;21.00;;;;;;4960271;28;20042;-81
2023/06/04 09:47:11;;;;;;;6.43;3.55;;;39.50;21.60;;;;;;4975819;28;20484;-81
2023/06/04 09:49:47;;;;;;;5.22;3.55;;;39.60;22.20;;;;;;4975866;28;20066;-81
2023/06/04 09:52:13;;;;;;;5.93;3.60;;;39.60;22.30;;;;;;4977221;28;20141;-81
2023/06/04 09:54:41;;;;;;;4.38;3.38;;;39.80;21.50;;;;;;4994815;28;20113;-82
2023/06/04 09:57:19;;;;;;;4.00;3.25;;;39.80;21.60;;;;;;4978858;28;20018;-81
2023/06/04 09:59:48;;;;;;;5.07;3.35;;;39.80;21.10;;;;;;4960131;28;20035;-82
2023/06/04 10:02:20;;;;;;;7.13;3.75;;;39.60;22.00;;;;;;4957538;29;20032;-81
2023/06/04 10:04:54;;;;;;;4.60;3.47;;;39.40;22.10;;;;;;4960789;28;20632;-81
2023/06/04 10:07:20;;;;;;;5.47;3.30;;;39.70;22.10;;;;;;4940395;29;20096;-83
2023/06/04 10:09:49;;;;;;;5.25;3.63;;;39.50;21.90;;;;;;4957994;28;20485;-80
2023/06/04 10:12:16;;;;;;;4.78;3.80;;;39.30;22.60;;;;;;4976550;28;20027;-81
2023/06/04 10:14:51;;;;;;;5.55;3.30;;;39.10;22.10;;;;;;4975419;28;20041;-78
2023/06/04 10:17:19;;;;;;;4.97;3.22;;;39.00;22.50;;;;;;4961462;28;20027;-81
2023/06/04 10:19:45;;;;;;;4.20;3.30;;;38.80;21.60;;;;;;4953589;28;20042;-76
2023/06/04 10:22:11;;;;;;;5.70;3.55;;;38.60;22.90;;;;;;4958109;28;20037;-79
2023/06/04 10:24:38;;;;;;;5.40;3.30;;;38.10;23.10;;;;;;4976006;28;20042;-82
2023/06/04 10:27:10;;;;;;;4.82;3.42;;;38.00;23.50;;;;;;4959629;28;20042;-86
2023/06/04 10:29:36;;;;;;;5.22;3.53;;;37.60;24.40;;;;;;4958829;28;20045;-81
2023/06/04 10:32:02;;;;;;;4.57;3.20;;;37.40;24.20;;;;;;4954626;28;20049;-82
2023/06/04 10:34:28;;;;;;;6.72;3.42;;;37.30;24.40;;;;;;4975807;28;20038;-82
2023/06/04 10:36:55;;;;;;;6.63;3.40;;;36.80;25.00;;;;;;4963530;28;20031;-78
2023/06/04 10:39:28;;;;;;;7.53;3.30;;;36.10;25.20;;;;;;4963091;28;20039;-83
2023/06/04 10:42:05;;;;;;;5.30;3.00;;;35.30;25.90;;;;;;4962520;28;20039;-80
2023/06/04 10:44:45;;;;;;;4.63;3.03;;;34.40;26.60;;;;;;4989876;28;20417;-82
2023/06/04 10:47:23;;;;;;;5.03;2.63;;;33.80;28.90;;;;;;4999039;28;20041;-81
2023/06/04 10:50:07;;;;;;;7.75;3.13;;;33.30;28.80;;;;;;4961258;28;20130;-81
2023/06/04 10:52:33;;;;;;;5.63;2.80;;;32.90;30.20;;;;;;4962383;28;20018;-80
2023/06/04 10:55:06;;;;;;;7.45;3.08;;;32.60;30.30;;;;;;4963793;28;20117;-82
2023/06/04 10:57:32;;;;;;;6.22;3.42;;;32.20;31.20;;;;;;4967917;28;20023;-81
2023/06/04 10:59:59;;;;;;;4.95;3.00;;;32.10;30.70;;;;;;4979561;28;20485;-79
2023/06/04 11:02:26;;;;;;;6.68;3.50;;;31.90;31.00;;;;;;4979421;28;20401;-77
2023/06/04 11:05:18;;;;;;;5.22;3.42;;;31.60;31.10;;;;;;4961711;28;20034;-83
2023/06/04 11:07:47;;;;;;;9.70;2.97;;;31.40;31.10;;;;;;4976635;28;20042;-78
2023/06/04 11:10:14;;;;;;;4.90;2.95;;;31.30;32.10;;;;;;4962945;28;20065;-83
2023/06/04 11:12:48;;;;;;;5.30;3.03;;;31.30;31.90;;;;;;4961287;28;20015;-85
2023/06/04 11:15:16;;;;;;;5.18;3.30;;;31.20;32.80;;;;;;4975592;28;20470;-85
2023/06/04 11:17:53;;;;;;;5.75;3.00;;;31.00;32.10;;;;;;4960220;28;20031;-86
2023/06/04 11:20:20;;;;;;;5.90;3.20;;;30.90;32.10;;;;;;4955725;28;20259;-84
2023/06/04 11:22:59;;;;;;;9.55;3.65;;;30.80;31.90;;;;;;4960898;28;20450;-86
2023/06/04 11:25:26;;;;;;;6.25;3.70;;;30.70;32.70;;;;;;4962835;28;20027;-86
2023/06/04 11:27:55;;;;;;;5.97;3.58;;;30.70;32.60;;;;;;4972472;28;20063;-85
2023/06/04 11:30:21;;;;;;;6.28;3.30;;;30.80;34.30;;;;;;4969116;28;20027;-86
2023/06/04 11:32:47;;;;;;;5.65;3.38;;;30.50;32.40;;;;;;4969808;28;20034;-86
2023/06/04 11:35:13;;;;;;;5.57;3.30;;;30.50;33.20;;;;;;4971782;28;20031;-88
2023/06/04 11:37:39;;;;;;;7.53;3.58;;;30.60;33.50;;;;;;4971461;28;20456;-88
2023/06/04 11:40:19;;;;;;;6.50;3.50;;;30.40;33.00;;;;;;4955537;28;20033;-86
2023/06/04 11:42:48;;;;;;;6.65;3.58;;;30.10;32.60;;;;;;4969196;28;20027;-85
2023/06/04 11:45:16;;;;;;;6.03;3.30;;;30.20;33.90;;;;;;4971214;28;20031;-87
2023/06/04 11:47:46;;;;;;;8.50;3.65;;;30.30;35.00;;;;;;4950771;28;20034;-81
2023/06/04 11:50:12;;;;;;;5.10;3.30;;;30.40;33.30;;;;;;4972466;28;20083;-77
2023/06/04 11:52:38;;;;;;;7.68;3.92;;;30.30;33.40;;;;;;4968193;28;20034;-89
2023/06/04 11:55:09;;;;;;;7.13;3.75;;;30.00;33.90;;;;;;4968339;28;20038;-78
2023/06/04 11:57:35;;;;;;;6.70;3.70;;;30.10;33.50;;;;;;4951085;28;20826;-82
2023/06/04 12:00:02;;;;;;;6.80;3.85;;;30.20;34.40;;;;;;4968301;28;20066;-86
2023/06/04 12:02:28;;;;;;;5.35;3.53;;;30.20;33.30;;;;;;4961894;28;20025;-81
2023/06/04 12:04:54;;;;;;;6.95;3.90;;;30.10;34.20;;;;;;4970871;28;20027;-78
2023/06/04 12:07:24;;;;;;;6.03;3.65;;;30.10;34.60;;;;;;4954138;28;20039;-85
2023/06/04 12:09:50;;;;;;;4.85;3.20;;;30.30;34.30;;;;;;4960172;28;20030;-85
2023/06/04 12:12:25;;;;;;;6.40;3.83;;;30.30;35.30;;;;;;4979507;28;20022;-80
2023/06/04 12:14:58;;;;;;;8.48;4.28;;;30.40;34.10;;;;;;4976656;28;20031;-78
2023/06/04 12:17:23;;;;;;;6.43;3.67;;;30.40;34.10;;;;;;4976973;28;20021;-79
2023/06/04 12:19:51;;;;;;;8.55;3.97;;;30.30;33.60;;;;;;4976450;28;20027;-79
2023/06/04 12:22:17;;;;;;;5.82;3.95;;;30.20;34.00;;;;;;4959985;28;20023;-78
2023/06/04 12:24:49;;;;;;;8.48;4.28;;;30.10;33.50;;;;;;4974476;28;20412;-78
2023/06/04 12:27:15;;;;;;;7.28;4.05;;;30.00;33.70;;;;;;4974771;28;20021;-78
2023/06/04 12:29:41;;;;;;;7.93;4.78;;;29.90;33.30;;;;;;4958954;28;20030;-78
2023/06/04 12:32:08;;;;;;;5.82;4.20;;;29.90;34.00;;;;;;4968575;28;20046;-78
2023/06/04 12:34:35;;;;;;;7.07;4.10;;;29.80;34.70;;;;;;4964820;28;20023;-78
2023/06/04 12:37:03;;;;;;;7.25;3.97;;;29.80;34.30;;;;;;4967511;28;20027;-80
2023/06/04 12:39:29;;;;;;;6.70;3.92;;;29.70;34.10;;;;;;4967650;28;20564;-79
2023/06/04 12:41:55;;;;;;;5.55;3.80;;;29.80;35.20;;;;;;4966854;28;20038;-78
2023/06/04 12:44:21;;;;;;;5.97;4.00;;;29.80;35.70;;;;;;4964859;28;20086;-79
2023/06/04 12:46:46;;;;;;;6.32;4.00;;;29.80;34.40;;;;;;4961101;28;20035;-79
2023/06/04 12:49:12;;;;;;;6.60;3.80;;;29.90;34.10;;;;;;4949833;28;20031;-79
2023/06/04 12:51:38;;;;;;;7.80;4.30;;;30.00;34.30;;;;;;4953129;29;20110;-79
2023/06/04 12:54:05;;;;;;;7.25;3.95;;;30.10;34.00;;;;;;4964150;28;20588;-80
2023/06/04 12:56:30;;;;;;;7.95;4.07;;;30.20;35.40;;;;;;4961835;28;20019;-80
2023/06/04 12:58:56;;;;;;;7.82;4.00;;;30.10;33.60;;;;;;4940415;29;20035;-80
2023/06/04 13:01:22;;;;;;;6.30;3.75;;;29.80;34.10;;;;;;4956189;29;20106;-79
2023/06/04 13:03:48;;;;;;;6.53;3.55;;;29.80;34.00;;;;;;4949012;28;20030;-80
2023/06/04 13:06:13;;;;;;;5.53;3.60;;;29.80;34.10;;;;;;4955436;28;20528;-79
2023/06/04 13:08:40;;;;;;;6.90;4.35;;;29.80;34.30;;;;;;4952393;28;20027;-80
2023/06/04 13:11:06;;;;;;;6.38;3.78;;;29.70;33.70;;;;;;4946423;28;20050;-81
2023/06/04 13:13:32;;;;;;;6.28;4.38;;;29.80;34.80;;;;;;4939150;29;20118;-80
2023/06/04 13:15:57;;;;;;;6.30;4.03;;;29.80;33.50;;;;;;4952617;28;20058;-80
2023/06/04 13:18:23;;;;;;;7.25;4.32;;;29.90;34.10;;;;;;4929937;29;20035;-80
2023/06/04 13:20:49;;;;;;;7.45;4.20;;;30.00;35.00;;;;;;4956662;28;20043;-80
2023/06/04 13:23:14;;;;;;;5.75;3.80;;;29.80;34.50;;;;;;4952799;28;20053;-80
2023/06/04 13:25:40;;;;;;;6.15;4.00;;;29.90;33.80;;;;;;4945931;29;20110;-80
2023/06/04 13:28:07;;;;;;;6.53;3.78;;;29.90;34.30;;;;;;4957127;28;20118;-81
2023/06/04 13:30:39;;;;;;;12.85;4.32;;;30.10;35.00;;;;;;4955706;28;20674;-80
2023/06/04 13:33:06;;;;;;;6.65;3.90;;;29.80;33.40;;;;;;4968932;28;20062;-80
2023/06/04 13:35:32;;;;;;;6.55;4.10;;;29.90;34.30;;;;;;4945280;28;20510;-80
2023/06/04 13:37:58;;;;;;;7.90;4.45;;;30.00;34.10;;;;;;4954869;28;20023;-81
2023/06/04 13:40:23;;;;;;;5.18;4.00;;;30.30;36.50;;;;;;4938601;29;20027;-82
2023/06/04 13:42:49;;;;;;;8.35;4.00;;;30.20;32.90;;;;;;4967463;28;20027;-82
2023/06/04 13:45:16;;;;;;;7.25;4.40;;;30.20;34.30;;;;;;4955632;28;20117;-80
2023/06/04 13:47:42;;;;;;;5.45;4.13;;;29.80;34.00;;;;;;4966379;28;20493;-80
2023/06/04 13:50:08;;;;;;;11.85;4.20;;;29.80;33.70;;;;;;4965884;28;20079;-81
2023/06/04 13:52:34;;;;;;;6.30;4.40;;;29.90;34.30;;;;;;4949897;28;20089;-77
2023/06/04 13:55:00;;;;;;;6.40;3.85;;;30.00;33.50;;;;;;4964661;28;20486;-77
2023/06/04 13:57:26;;;;;;;6.78;4.30;;;30.20;32.70;;;;;;4967363;28;20019;-80
2023/06/04 13:59:51;;;;;;;6.53;4.13;;;30.30;32.00;;;;;;4971971;28;20039;-74
2023/06/04 14:02:17;;;;;;;7.85;4.72;;;30.30;32.40;;;;;;4957092;28;20067;-74
2023/06/04 14:04:43;;;;;;;7.70;4.45;;;30.10;32.90;;;;;;4955622;28;20035;-74
2023/06/04 14:07:09;;;;;;;6.45;4.50;;;29.80;33.70;;;;;;4949452;28;20051;-79
2023/06/04 14:09:35;;;;;;;6.68;4.35;;;29.90;32.40;;;;;;4986513;28;20094;-79
2023/06/04 14:12:02;;;;;;;6.45;4.22;;;29.90;33.80;;;;;;4958405;28;20016;-78
2023/06/04 14:14:30;;;;;;;7.03;4.50;;;30.10;31.30;;;;;;4957518;28;20541;-79
2023/06/04 14:16:57;;;;;;;6.25;3.97;;;30.20;30.00;;;;;;4956826;28;20061;-83
2023/06/04 14:19:22;;;;;;;6.93;4.22;;;30.20;32.10;;;;;;4970251;28;20035;-78
2023/06/04 14:21:48;;;;;;;7.90;4.57;;;30.00;30.40;;;;;;4962752;28;20039;-79
2023/06/04 14:24:14;;;;;;;8.20;4.07;;;30.00;33.30;;;;;;4966374;28;20043;-78
2023/06/04 14:26:40;;;;;;;9.40;4.63;;;30.00;32.00;;;;;;4958854;29;20031;-81
2023/06/04 14:29:05;;;;;;;5.72;4.00;;;30.10;32.90;;;;;;4957830;28;20046;-77
2023/06/04 14:31:31;;;;;;;6.75;4.13;;;30.10;32.10;;;;;;4963865;28;20524;-80
2023/06/04 14:33:57;;;;;;;7.13;4.10;;;30.10;32.50;;;;;;4978046;28;20030;-86
2023/06/04 14:36:22;;;;;;;6.20;4.05;;;30.10;32.40;;;;;;4979943;28;20030;-76
2023/06/04 14:38:48;;;;;;;5.38;3.55;;;30.00;31.70;;;;;;4977758;28;20050;-83
2023/06/04 14:41:15;;;;;;;5.00;3.55;;;30.00;31.60;;;;;;4979606;28;20046;-80
2023/06/04 14:43:40;;;;;;;6.88;4.00;;;30.20;32.30;;;;;;4983334;28;20414;-80
2023/06/04 14:46:06;;;;;;;6.80;4.10;;;30.20;31.70;;;;;;4979754;28;20034;-83
2023/06/04 14:48:32;;;;;;;6.10;4.20;;;30.20;32.30;;;;;;4978792;28;20038;-80
2023/06/04 14:50:57;;;;;;;6.05;3.75;;;30.20;31.90;;;;;;4978756;28;20062;-80
2023/06/04 14:53:23;;;;;;;5.85;3.50;;;29.90;31.80;;;;;;4988555;28;20031;-81
2023/06/04 14:55:49;;;;;;;7.15;3.92;;;29.80;32.30;;;;;;4973367;28;20109;-82
2023/06/04 14:58:15;;;;;;;6.28;3.90;;;29.90;32.00;;;;;;4961797;28;20131;-82
2023/06/04 15:00:44;;;;;;;7.95;4.32;;;29.80;31.80;;;;;;4950483;28;20034;-83
2023/06/04 15:03:10;;;;;;;7.55;4.07;;;29.90;31.50;;;;;;4979043;28;20030;-82
2023/06/04 15:05:36;;;;;;;8.15;4.05;;;29.80;31.10;;;;;;4975997;28;20041;-82
2023/06/04 15:08:03;;;;;;;5.65;3.40;;;29.80;32.10;;;;;;4961451;28;20031;-82
2023/06/04 15:10:28;;;;;;;5.93;3.60;;;29.80;32.20;;;;;;4960949;28;20023;-82
2023/06/04 15:12:54;;;;;;;5.47;3.55;;;29.80;31.00;;;;;;4961479;28;20027;-82
2023/06/04 15:15:20;;;;;;;6.07;3.83;;;29.70;31.80;;;;;;4976839;28;20038;-84
2023/06/04 15:17:47;;;;;;;6.63;3.90;;;29.70;31.60;;;;;;4955142;28;20066;-84
2023/06/04 15:20:13;;;;;;;6.28;4.10;;;29.80;31.90;;;;;;4979751;28;20489;-84
2023/06/04 15:22:38;;;;;;;5.47;3.85;;;29.80;32.30;;;;;;4970100;28;20030;-83
2023/06/04 15:25:04;;;;;;;13.43;4.10;;;30.00;33.40;;;;;;4976396;28;20082;-83
2023/06/04 15:27:30;;;;;;;5.47;3.80;;;30.10;32.30;;;;;;4977533;28;20500;-83
2023/06/04 15:29:56;;;;;;;5.18;3.30;;;30.10;32.00;;;;;;4979098;28;20146;-85
2023/06/04 15:32:22;;;;;;;7.57;3.92;;;30.00;31.50;;;;;;4979974;28;20123;-83
2023/06/04 15:34:48;;;;;;;6.75;3.65;;;30.00;31.60;;;;;;4976344;28;20038;-83
2023/06/04 15:37:13;;;;;;;5.57;3.90;;;30.00;31.50;;;;;;4978530;28;20019;-82
2023/06/04 15:39:40;;;;;;;7.82;3.42;;;30.00;31.80;;;;;;4958460;28;20038;-82
2023/06/04 15:42:07;;;;;;;6.10;3.75;;;30.10;32.20;;;;;;4977793;28;20034;-84
2023/06/04 15:44:32;;;;;;;6.43;4.60;;;29.90;31.20;;;;;;4977889;28;20058;-85
2023/06/04 15:46:58;;;;;;;5.45;3.45;;;29.80;30.30;;;;;;4997823;28;20038;-84
2023/06/04 15:49:24;;;;;;;7.07;4.03;;;29.60;31.50;;;;;;4995741;28;20042;-84
2023/06/04 15:51:50;;;;;;;6.68;3.67;;;29.40;31.00;;;;;;4958004;28;20485;-81
2023/06/04 15:54:15;;;;;;;6.63;3.60;;;29.30;31.70;;;;;;4997815;28;20109;-81
2023/06/04 15:56:41;;;;;;;5.45;3.40;;;29.20;31.80;;;;;;4979023;28;20069;-82
2023/06/04 15:59:07;;;;;;;5.78;3.30;;;29.30;32.20;;;;;;4977155;28;20742;-85
2023/06/04 16:01:33;;;;;;;5.60;3.28;;;29.30;32.40;;;;;;4977824;28;20018;-85
2023/06/04 16:03:58;;;;;;;5.88;3.55;;;29.30;31.70;;;;;;4975671;28;20054;-84
2023/06/04 16:06:24;;;;;;;6.13;3.60;;;29.40;31.50;;;;;;4995154;28;20049;-85
2023/06/04 16:08:50;;;;;;;6.60;3.42;;;29.30;32.10;;;;;;4962663;28;20105;-85
2023/06/04 16:11:16;;;;;;;5.53;3.83;;;29.30;31.40;;;;;;4962698;28;20031;-85
2023/06/04 16:13:42;;;;;;;5.43;3.60;;;29.20;31.70;;;;;;4970485;28;20031;-85
2023/06/04 16:16:08;;;;;;;6.63;4.18;;;29.10;31.20;;;;;;4959015;29;20019;-84
2023/06/04 16:18:34;;;;;;;6.18;3.47;;;29.10;31.10;;;;;;4953346;28;20050;-82
2023/06/04 16:21:00;;;;;;;6.72;3.65;;;29.10;31.30;;;;;;4969166;28;20066;-82
2023/06/04 16:23:26;;;;;;;5.38;3.40;;;29.20;32.00;;;;;;4959890;28;20034;-83
2023/06/04 16:25:51;;;;;;;7.80;4.10;;;29.20;32.00;;;;;;4977940;28;20030;-84
2023/06/04 16:28:17;;;;;;;5.25;3.72;;;29.10;31.50;;;;;;4955116;28;20130;-83
2023/06/04 16:30:43;;;;;;;6.90;3.65;;;29.20;30.90;;;;;;4969788;28;20552;-80
2023/06/04 16:33:09;;;;;;;9.27;5.35;;;29.10;31.30;;;;;;4977677;28;20070;-84
2023/06/04 16:35:35;;;;;;;9.55;5.57;;;29.10;31.70;;;;;;4957014;28;20488;-82
2023/06/04 16:38:02;;;;;;;10.50;5.10;;;29.10;31.50;;;;;;4976319;28;20023;-86
2023/06/04 16:40:28;;;;;;;7.13;4.30;;;29.10;31.40;;;;;;4973865;28;20101;-85
2023/06/04 16:42:53;;;;;;;6.13;4.03;;;29.00;31.50;;;;;;4966989;28;20073;-87
2023/06/04 16:45:19;;;;;;;6.22;3.53;;;29.00;31.50;;;;;;4957282;28;20034;-80
2023/06/04 16:47:45;;;;;;;5.63;3.85;;;28.90;32.10;;;;;;4982636;28;20038;-80
2023/06/04 16:50:12;;;;;;;7.18;3.80;;;28.80;32.10;;;;;;4991406;28;20038;-89
2023/06/04 16:52:37;;;;;;;7.72;3.90;;;28.80;31.90;;;;;;4970859;28;20034;-82
2023/06/04 16:55:04;;;;;;;6.45;3.40;;;28.80;32.20;;;;;;4976134;28;20091;-87
2023/06/04 16:57:31;;;;;;;7.65;3.80;;;28.80;32.60;;;;;;4977834;28;20043;-84
2023/06/04 16:59:57;;;;;;;6.65;3.78;;;28.80;32.40;;;;;;4964837;28;20035;-86
2023/06/04 17:02:23;;;;;;;5.70;3.40;;;28.70;32.10;;;;;;4956305;28;20035;-90
2023/06/04 17:04:48;;;;;;;6.75;4.00;;;28.70;32.40;;;;;;4956642;29;20082;-85
2023/06/04 17:07:14;;;;;;;6.35;3.55;;;28.60;32.50;;;;;;4966656;28;20041;-85
2023/06/04 17:09:40;;;;;;;6.10;3.90;;;28.50;32.80;;;;;;4959682;28;20027;-85
2023/06/04 17:12:07;;;;;;;8.25;4.20;;;28.50;32.60;;;;;;4977229;28;20050;-87
2023/06/04 17:14:36;;;;;;;5.40;3.50;;;28.50;33.00;;;;;;4966016;28;20023;-79